createdAt,value
2022-12-09T00:00:25.396Z,0.53
2022-12-09T00:01:25.410Z,0.51
2022-12-09T00:02:25.755Z,0.53
2022-12-09T00:03:25.457Z,0.53
2022-12-09T00:04:25.658Z,0.56
2022-12-09T00:05:25.325Z,0.59
2022-12-09T00:06:25.565Z,0.59
2022-12-09T00:07:25.369Z,0.62
2022-12-09T00:08:25.455Z,0.62
2022-12-09T00:09:25.294Z,0.63
2022-12-09T00:10:25.416Z,0.64
2022-12-09T00:11:25.336Z,0.64
2022-12-09T00:12:25.360Z,0.67
2022-12-09T00:13:25.247Z,0.67
2022-12-09T00:14:25.235Z,0.72
2022-12-09T00:15:25.336Z,0.76
2022-12-09T00:16:25.440Z,0.80
2022-12-09T00:17:25.520Z,0.81
2022-12-09T00:18:25.212Z,0.84
2022-12-09T00:19:25.200Z,0.87
2022-12-09T00:20:25.428Z,0.91
2022-12-09T00:21:25.175Z,0.96
2022-12-09T00:22:25.171Z,1.00
2022-12-09T00:23:25.181Z,1.03
2022-12-09T00:24:25.299Z,1.03
2022-12-09T00:25:25.126Z,1.06
2022-12-09T00:26:25.391Z,1.12
2022-12-09T00:27:25.107Z,1.12
2022-12-09T00:28:25.104Z,1.16
2022-12-09T00:29:25.089Z,1.13
2022-12-09T00:30:25.100Z,1.17
2022-12-09T00:31:25.425Z,1.18
2022-12-09T00:32:25.373Z,1.18
2022-12-09T00:33:25.155Z,1.20
2022-12-09T00:34:25.236Z,1.21
2022-12-09T00:35:25.178Z,1.18
2022-12-09T00:36:25.212Z,1.21
2022-12-09T00:37:25.001Z,1.23
2022-12-09T00:38:25.016Z,1.21
2022-12-09T00:39:25.107Z,1.23
2022-12-09T00:40:25.011Z,1.23
2022-12-09T00:41:24.973Z,1.23
2022-12-09T00:42:25.204Z,1.23
2022-12-09T00:43:24.945Z,1.20
2022-12-09T00:44:25.114Z,1.23
2022-12-09T00:45:25.171Z,1.18
2022-12-09T00:46:25.293Z,1.20
2022-12-09T00:47:25.250Z,1.16
2022-12-09T00:48:24.917Z,1.16
2022-12-09T00:49:24.890Z,1.13
2022-12-09T00:50:24.878Z,1.13
2022-12-09T00:51:24.919Z,1.09
2022-12-09T00:52:24.923Z,1.10
2022-12-09T00:53:25.030Z,1.10
2022-12-09T00:54:25.223Z,1.10
2022-12-09T00:55:24.962Z,1.12
2022-12-09T00:56:24.897Z,1.10
2022-12-09T00:57:24.821Z,1.12
2022-12-09T00:58:24.884Z,1.12
2022-12-09T00:59:24.794Z,1.12
2022-12-09T01:00:25.015Z,1.10
2022-12-09T01:01:25.182Z,1.12
2022-12-09T01:02:24.875Z,1.12
2022-12-09T01:03:25.106Z,1.16
2022-12-09T01:04:24.926Z,1.18
2022-12-09T01:05:24.778Z,1.18
2022-12-09T01:06:25.002Z,1.23
2022-12-09T01:07:24.706Z,1.24
2022-12-09T01:08:25.042Z,1.24
2022-12-09T01:09:24.807Z,1.27
2022-12-09T01:10:24.792Z,1.27
2022-12-09T01:11:24.674Z,1.30
2022-12-09T01:12:24.706Z,1.30
2022-12-09T01:13:24.838Z,1.34
2022-12-09T01:14:24.865Z,1.34
2022-12-09T01:15:24.627Z,1.35
2022-12-09T01:16:24.743Z,1.36
2022-12-09T01:17:24.784Z,1.35
2022-12-09T01:18:24.606Z,1.35
2022-12-09T01:19:24.576Z,1.36
2022-12-09T01:20:24.669Z,1.38
2022-12-09T01:21:24.585Z,1.36
2022-12-09T01:22:24.544Z,1.38
2022-12-09T01:23:24.915Z,1.38
2022-12-09T01:24:24.546Z,1.38
2022-12-09T01:25:24.525Z,1.36
2022-12-09T01:26:24.510Z,1.35
2022-12-09T01:27:24.496Z,1.36
2022-12-09T01:28:24.679Z,1.35
2022-12-09T01:29:24.472Z,1.34
2022-12-09T01:30:24.781Z,1.30
2022-12-09T01:31:24.883Z,1.30
2022-12-09T01:32:24.502Z,1.34
2022-12-09T01:33:24.772Z,1.31
2022-12-09T01:34:24.565Z,1.30
2022-12-09T01:35:24.424Z,1.30
2022-12-09T01:36:24.577Z,1.30
2022-12-09T01:37:24.395Z,1.31
2022-12-09T01:38:24.396Z,1.31
2022-12-09T01:39:24.603Z,1.31
2022-12-09T01:40:24.408Z,1.34
2022-12-09T01:41:24.350Z,1.30
2022-12-09T01:42:24.655Z,1.31
2022-12-09T01:43:24.387Z,1.30
2022-12-09T01:44:24.409Z,1.34
2022-12-09T01:45:24.337Z,1.35
2022-12-09T01:46:24.558Z,1.38
2022-12-09T01:47:24.396Z,1.39
2022-12-09T01:48:24.396Z,1.42
2022-12-09T01:49:24.487Z,1.44
2022-12-09T01:50:24.263Z,1.46
2022-12-09T01:51:24.614Z,1.46
2022-12-09T01:52:24.328Z,1.46
2022-12-09T01:53:24.490Z,1.48
2022-12-09T01:54:24.549Z,1.52
2022-12-09T01:55:24.207Z,1.52
2022-12-09T01:56:24.261Z,1.52
2022-12-09T01:57:24.496Z,1.52
2022-12-09T01:58:24.190Z,1.52
2022-12-09T01:59:24.178Z,1.53
2022-12-09T02:00:24.181Z,1.55
2022-12-09T02:01:24.529Z,1.56
2022-12-09T02:02:24.330Z,1.55
2022-12-09T02:03:24.341Z,1.55
2022-12-09T02:04:24.540Z,1.55
2022-12-09T02:05:24.479Z,1.52
2022-12-09T02:06:24.412Z,1.52
2022-12-09T02:07:24.109Z,1.52
2022-12-09T02:08:24.256Z,1.52
2022-12-09T02:09:24.189Z,1.52
2022-12-09T02:10:24.303Z,1.48
2022-12-09T02:11:24.281Z,1.49
2022-12-09T02:12:24.099Z,1.48
2022-12-09T02:13:24.182Z,1.46
2022-12-09T02:14:24.349Z,1.46
2022-12-09T02:15:24.311Z,1.46
2022-12-09T02:16:24.058Z,1.48
2022-12-09T02:17:24.328Z,1.45
2022-12-09T02:18:24.101Z,1.44
2022-12-09T02:19:24.021Z,1.42
2022-12-09T02:20:24.278Z,1.41
2022-12-09T02:21:23.968Z,1.42
2022-12-09T02:22:24.063Z,1.42
2022-12-09T02:23:24.373Z,1.45
2022-12-09T02:24:24.113Z,1.45
2022-12-09T02:25:24.369Z,1.45
2022-12-09T02:26:23.900Z,1.44
2022-12-09T02:27:24.063Z,1.44
2022-12-09T02:28:23.890Z,1.44
2022-12-09T02:29:24.049Z,1.45
2022-12-09T02:30:23.902Z,1.46
2022-12-09T02:31:23.970Z,1.46
2022-12-09T02:32:23.869Z,1.46
2022-12-09T02:33:23.940Z,1.48
2022-12-09T02:34:23.960Z,1.49
2022-12-09T02:35:23.925Z,1.53
2022-12-09T02:36:23.987Z,1.53
2022-12-09T02:37:24.090Z,1.55
2022-12-09T02:38:23.975Z,1.56
2022-12-09T02:39:23.787Z,1.57
2022-12-09T02:40:23.767Z,1.60
2022-12-09T02:41:23.930Z,1.59
2022-12-09T02:42:24.118Z,1.60
2022-12-09T02:43:23.737Z,1.62
2022-12-09T02:44:23.727Z,1.60
2022-12-09T02:45:23.797Z,1.62
2022-12-09T02:46:23.806Z,1.62
2022-12-09T02:47:23.778Z,1.62
2022-12-09T02:48:23.807Z,1.63
2022-12-09T02:49:24.010Z,1.60
2022-12-09T02:50:23.979Z,1.62
2022-12-09T02:51:24.033Z,1.60
2022-12-09T02:52:23.648Z,1.60
2022-12-09T02:53:23.654Z,1.60
2022-12-09T02:54:23.958Z,1.60
2022-12-09T02:55:23.723Z,1.60
2022-12-09T02:56:23.601Z,1.60
2022-12-09T02:57:23.594Z,1.63
2022-12-09T02:58:23.653Z,1.59
2022-12-09T02:59:23.566Z,1.59
2022-12-09T03:00:23.578Z,1.56
2022-12-09T03:01:23.963Z,1.59
2022-12-09T03:02:23.718Z,1.59
2022-12-09T03:03:23.675Z,1.57
2022-12-09T03:04:23.874Z,1.57
2022-12-09T03:05:23.861Z,1.55
2022-12-09T03:06:23.491Z,1.53
2022-12-09T03:07:23.762Z,1.56
2022-12-09T03:08:23.534Z,1.57
2022-12-09T03:09:23.592Z,1.57
2022-12-09T03:10:24.177Z,1.56
2022-12-09T03:11:23.725Z,1.56
2022-12-09T03:12:23.439Z,1.53
2022-12-09T03:13:23.835Z,1.49
2022-12-09T03:14:23.583Z,1.44
2022-12-09T03:15:23.612Z,1.44
2022-12-09T03:16:23.527Z,1.44
2022-12-09T03:17:23.638Z,1.46
2022-12-09T03:18:23.522Z,1.45
2022-12-09T03:19:23.350Z,1.45
2022-12-09T03:20:23.400Z,1.44
2022-12-09T03:21:23.579Z,1.44
2022-12-09T03:22:23.530Z,1.44
2022-12-09T03:23:23.316Z,1.42
2022-12-09T03:24:23.311Z,1.42
2022-12-09T03:25:23.297Z,1.41
2022-12-09T03:26:23.447Z,1.41
2022-12-09T03:27:23.580Z,1.38
2022-12-09T03:28:23.622Z,1.39
2022-12-09T03:29:23.290Z,1.36
2022-12-09T03:30:23.266Z,1.38
2022-12-09T03:31:23.680Z,1.35
2022-12-09T03:32:23.286Z,1.36
2022-12-09T03:33:23.567Z,1.28
2022-12-09T03:34:23.439Z,1.26
2022-12-09T03:35:23.234Z,1.26
2022-12-09T03:36:23.234Z,1.26
2022-12-09T03:37:23.333Z,1.26
2022-12-09T03:38:23.477Z,1.27
2022-12-09T03:39:23.198Z,1.26
2022-12-09T03:40:24.169Z,1.24
2022-12-09T03:41:23.184Z,1.24
2022-12-09T03:42:23.281Z,1.23
2022-12-09T03:43:23.160Z,1.23
2022-12-09T03:44:23.298Z,1.20
2022-12-09T03:45:23.109Z,1.18
2022-12-09T03:46:23.215Z,1.18
2022-12-09T03:47:23.617Z,1.17
2022-12-09T03:48:23.405Z,1.17
2022-12-09T03:49:23.064Z,1.17
2022-12-09T03:50:23.267Z,1.16
2022-12-09T03:51:23.179Z,1.16
2022-12-09T03:52:23.312Z,1.18
2022-12-09T03:53:23.280Z,1.16
2022-12-09T03:54:23.019Z,1.16
2022-12-09T03:55:23.105Z,1.16
2022-12-09T03:56:23.064Z,1.17
2022-12-09T03:57:23.244Z,1.18
2022-12-09T03:58:22.976Z,1.23
2022-12-09T03:59:23.264Z,1.21
2022-12-09T04:00:23.194Z,1.26
2022-12-09T04:01:23.090Z,1.27
2022-12-09T04:02:23.431Z,1.28
2022-12-09T04:03:23.498Z,1.31
2022-12-09T04:04:22.962Z,1.31
2022-12-09T04:05:23.243Z,1.28
2022-12-09T04:06:23.202Z,1.30
2022-12-09T04:07:22.901Z,1.34
2022-12-09T04:08:22.981Z,1.34
2022-12-09T04:09:23.164Z,1.36
2022-12-09T04:10:23.051Z,1.35
2022-12-09T04:11:23.041Z,1.35
2022-12-09T04:12:23.088Z,1.36
2022-12-09T04:13:23.106Z,1.38
2022-12-09T04:14:23.053Z,1.36
2022-12-09T04:15:22.812Z,1.39
2022-12-09T04:16:22.983Z,1.38
2022-12-09T04:17:22.940Z,1.39
2022-12-09T04:18:23.273Z,1.41
2022-12-09T04:19:22.772Z,1.41
2022-12-09T04:20:22.738Z,1.39
2022-12-09T04:21:22.779Z,1.38
2022-12-09T04:22:22.723Z,1.36
2022-12-09T04:23:22.791Z,1.36
2022-12-09T04:24:23.075Z,1.35
2022-12-09T04:25:22.878Z,1.36
2022-12-09T04:26:22.687Z,1.36
2022-12-09T04:27:22.752Z,1.38
2022-12-09T04:28:22.663Z,1.36
2022-12-09T04:29:23.007Z,1.34
2022-12-09T04:30:22.755Z,1.31
2022-12-09T04:31:22.971Z,1.30
2022-12-09T04:32:23.103Z,1.28
2022-12-09T04:33:22.883Z,1.31
2022-12-09T04:34:22.680Z,1.28
2022-12-09T04:35:22.596Z,1.30
2022-12-09T04:36:22.644Z,1.27
2022-12-09T04:37:22.646Z,1.26
2022-12-09T04:38:22.871Z,1.20
2022-12-09T04:39:22.789Z,1.18
2022-12-09T04:40:24.242Z,1.20
2022-12-09T04:41:22.843Z,1.21
2022-12-09T04:42:22.521Z,1.21
2022-12-09T04:43:22.510Z,1.18
2022-12-09T04:44:22.749Z,1.20
2022-12-09T04:45:22.734Z,1.20
2022-12-09T04:46:22.601Z,1.20
2022-12-09T04:47:23.005Z,1.20
2022-12-09T04:48:22.445Z,1.18
2022-12-09T04:49:22.812Z,1.16
2022-12-09T04:50:22.487Z,1.13
2022-12-09T04:51:22.432Z,1.16
2022-12-09T04:52:22.744Z,1.16
2022-12-09T04:53:22.646Z,1.13
2022-12-09T04:54:22.436Z,1.13
2022-12-09T04:55:22.492Z,1.13
2022-12-09T04:56:22.446Z,1.10
2022-12-09T04:57:22.373Z,1.12
2022-12-09T04:58:22.357Z,1.10
2022-12-09T04:59:22.501Z,1.08
2022-12-09T05:00:22.642Z,1.08
2022-12-09T05:01:26.585Z,1.09
2022-12-09T05:02:22.585Z,1.05
2022-12-09T05:03:22.598Z,1.06
2022-12-09T05:04:22.467Z,1.06
2022-12-09T05:05:22.785Z,1.05
2022-12-09T05:06:22.806Z,1.03
2022-12-09T05:07:22.474Z,1.03
2022-12-09T05:08:25.865Z,1.02
2022-12-09T05:09:22.434Z,1.02
2022-12-09T05:10:22.320Z,1.05
2022-12-09T05:11:22.405Z,1.03
2022-12-09T05:12:22.597Z,1.03
2022-12-09T05:13:22.548Z,1.05
2022-12-09T05:14:22.577Z,1.05
2022-12-09T05:15:22.310Z,1.06
2022-12-09T05:16:22.470Z,1.08
2022-12-09T05:17:22.732Z,1.08
2022-12-09T05:18:22.551Z,1.06
2022-12-09T05:19:22.667Z,1.06
2022-12-09T05:20:22.150Z,1.10
2022-12-09T05:21:22.479Z,1.10
2022-12-09T05:22:22.330Z,1.10
2022-12-09T05:23:22.137Z,1.09
2022-12-09T05:24:22.419Z,1.05
2022-12-09T05:25:22.165Z,1.03
2022-12-09T05:26:22.249Z,1.03
2022-12-09T05:27:22.399Z,1.03
2022-12-09T05:28:22.184Z,1.05
2022-12-09T05:29:23.473Z,1.03
2022-12-09T05:30:22.339Z,1.03
2022-12-09T05:31:22.260Z,1.03
2022-12-09T05:32:22.359Z,1.02
2022-12-09T05:33:22.383Z,1.02
2022-12-09T05:34:22.169Z,1.05
2022-12-09T05:35:22.066Z,1.03
2022-12-09T05:36:22.345Z,1.03
2022-12-09T05:37:22.296Z,1.05
2022-12-09T05:38:22.043Z,1.03
2022-12-09T05:39:22.157Z,1.02
2022-12-09T05:40:21.925Z,1.02
2022-12-09T05:41:22.267Z,1.02
2022-12-09T05:42:22.213Z,1.03
2022-12-09T05:43:22.257Z,1.05
2022-12-09T05:44:22.071Z,1.08
2022-12-09T05:45:21.993Z,1.09
2022-12-09T05:46:22.427Z,1.12
2022-12-09T05:47:22.036Z,1.13
2022-12-09T05:48:22.071Z,1.13
2022-12-09T05:49:22.186Z,1.16
2022-12-09T05:50:22.260Z,1.17
2022-12-09T05:51:21.904Z,1.16
2022-12-09T05:52:22.211Z,1.16
2022-12-09T05:53:22.019Z,1.16
2022-12-09T05:54:22.331Z,1.13
2022-12-09T05:55:22.012Z,1.16
2022-12-09T05:56:22.303Z,1.16
2022-12-09T05:57:22.131Z,1.13
2022-12-09T05:58:21.835Z,1.13
2022-12-09T05:59:22.166Z,1.12
2022-12-09T06:00:22.067Z,1.10
2022-12-09T06:01:22.127Z,1.09
2022-12-09T06:02:21.977Z,1.09
2022-12-09T06:03:22.002Z,1.08
2022-12-09T06:04:21.966Z,1.09
2022-12-09T06:05:21.949Z,1.08
2022-12-09T06:06:21.984Z,1.06
2022-12-09T06:07:22.261Z,1.05
2022-12-09T06:08:21.869Z,1.06
2022-12-09T06:09:22.044Z,1.03
2022-12-09T06:10:21.733Z,1.05
2022-12-09T06:11:22.159Z,1.08
2022-12-09T06:12:21.630Z,1.08
2022-12-09T06:13:21.647Z,1.08
2022-12-09T06:14:21.977Z,1.08
2022-12-09T06:15:23.036Z,1.08
2022-12-09T06:16:21.762Z,1.10
2022-12-09T06:17:21.709Z,1.06
2022-12-09T06:18:22.166Z,1.05
2022-12-09T06:19:21.861Z,1.02
2022-12-09T06:20:21.707Z,0.99
2022-12-09T06:21:21.966Z,0.99
2022-12-09T06:22:21.887Z,1.00
2022-12-09T06:23:21.906Z,1.02
2022-12-09T06:24:21.796Z,1.05
2022-12-09T06:25:21.601Z,1.08
2022-12-09T06:26:21.590Z,1.08
2022-12-09T06:27:21.786Z,1.09
2022-12-09T06:28:21.589Z,1.12
2022-12-09T06:29:21.876Z,1.13
2022-12-09T06:30:21.678Z,1.13
2022-12-09T06:31:21.666Z,1.13
2022-12-09T06:32:21.804Z,1.16
2022-12-09T06:33:52.457Z,1.17
2022-12-09T06:34:21.595Z,1.17
2022-12-09T06:35:21.610Z,1.20
2022-12-09T06:36:21.401Z,1.21
2022-12-09T06:37:21.357Z,1.21
2022-12-09T06:38:21.447Z,1.21
2022-12-09T06:39:21.692Z,1.23
2022-12-09T06:40:21.460Z,1.21
2022-12-09T06:41:21.398Z,1.21
2022-12-09T06:42:21.350Z,1.20
2022-12-09T06:43:21.333Z,1.18
2022-12-09T06:44:23.781Z,1.17
2022-12-09T06:45:21.787Z,1.16
2022-12-09T06:46:21.429Z,1.12
2022-12-09T06:47:21.406Z,1.10
2022-12-09T06:48:21.567Z,1.08
2022-12-09T06:49:21.501Z,1.09
2022-12-09T06:50:21.428Z,1.08
2022-12-09T06:51:21.557Z,1.08
2022-12-09T06:52:21.551Z,1.08
2022-12-09T06:53:21.194Z,1.06
2022-12-09T06:54:21.264Z,1.08
2022-12-09T06:55:21.557Z,1.05
2022-12-09T06:56:21.596Z,1.08
2022-12-09T06:57:21.235Z,1.08
2022-12-09T06:58:21.098Z,1.03
2022-12-09T06:59:21.161Z,0.99
2022-12-09T07:00:21.440Z,0.98
2022-12-09T07:01:21.671Z,1.00
2022-12-09T07:02:21.726Z,1.00
2022-12-09T07:03:21.721Z,1.00
2022-12-09T07:04:21.538Z,1.00
2022-12-09T07:05:21.549Z,1.02
2022-12-09T07:06:21.229Z,1.03
2022-12-09T07:07:21.233Z,1.05
2022-12-09T07:08:21.312Z,1.06
2022-12-09T07:09:21.300Z,1.06
2022-12-09T07:10:21.477Z,1.09
2022-12-09T07:11:21.149Z,1.09
2022-12-09T07:12:21.321Z,1.10
2022-12-09T07:13:21.175Z,1.13
2022-12-09T07:14:20.928Z,1.16
2022-12-09T07:15:21.122Z,1.13
2022-12-09T07:16:21.055Z,1.16
2022-12-09T07:17:21.201Z,1.16
2022-12-09T07:18:21.422Z,1.17
2022-12-09T07:19:21.359Z,1.18
2022-12-09T07:20:21.016Z,1.17
2022-12-09T07:21:20.921Z,1.16
2022-12-09T07:22:20.974Z,1.13
2022-12-09T07:23:20.847Z,1.13
2022-12-09T07:24:21.321Z,1.12
2022-12-09T07:25:21.000Z,1.12
2022-12-09T07:26:20.877Z,1.10
2022-12-09T07:27:21.159Z,1.09
2022-12-09T07:28:20.986Z,1.10
2022-12-09T07:29:20.973Z,1.10
2022-12-09T07:30:20.787Z,1.09
2022-12-09T07:31:21.464Z,1.08
2022-12-09T07:32:20.866Z,1.09
2022-12-09T07:33:21.108Z,1.08
2022-12-09T07:34:21.073Z,1.12
2022-12-09T07:35:20.978Z,1.09
2022-12-09T07:36:21.746Z,1.09
2022-12-09T07:37:20.754Z,1.09
2022-12-09T07:38:20.798Z,1.10
2022-12-09T07:39:21.181Z,1.10
2022-12-09T07:40:20.991Z,1.12
2022-12-09T07:41:21.064Z,1.16
2022-12-09T07:42:21.021Z,1.13
2022-12-09T07:43:21.093Z,1.16
2022-12-09T07:44:20.625Z,1.16
2022-12-09T07:45:20.909Z,1.13
2022-12-09T07:46:20.848Z,1.13
2022-12-09T07:47:20.708Z,1.17
2022-12-09T07:48:20.891Z,1.18
2022-12-09T07:49:20.966Z,1.18
2022-12-09T07:50:20.851Z,1.18
2022-12-09T07:51:20.996Z,1.20
2022-12-09T07:52:20.561Z,1.23
2022-12-09T07:53:20.585Z,1.21
2022-12-09T07:54:20.700Z,1.21
2022-12-09T07:55:20.941Z,1.18
2022-12-09T07:56:20.985Z,1.18
2022-12-09T07:57:20.767Z,1.17
2022-12-09T07:58:20.480Z,1.16
2022-12-09T07:59:20.615Z,1.16
2022-12-09T08:00:20.826Z,1.12
2022-12-09T08:01:20.506Z,1.12
2022-12-09T08:02:20.849Z,1.16
2022-12-09T08:03:20.787Z,1.18
2022-12-09T08:04:20.839Z,1.21
2022-12-09T08:05:20.820Z,1.21
2022-12-09T08:06:20.726Z,1.26
2022-12-09T08:07:20.996Z,1.27
2022-12-09T08:08:21.132Z,1.28
2022-12-09T08:09:20.898Z,1.30
2022-12-09T08:10:20.565Z,1.34
2022-12-09T08:11:20.633Z,1.35
2022-12-09T08:12:20.753Z,1.36
2022-12-09T08:13:20.541Z,1.38
2022-12-09T08:14:20.458Z,1.39
2022-12-09T08:15:20.814Z,1.41
2022-12-09T08:16:20.625Z,1.39
2022-12-09T08:17:20.638Z,1.42
2022-12-09T08:18:20.519Z,1.42
2022-12-09T08:19:20.453Z,1.41
2022-12-09T08:20:25.174Z,1.42
2022-12-09T08:21:20.505Z,1.42
2022-12-09T08:22:20.525Z,1.41
2022-12-09T08:23:20.708Z,1.44
2022-12-09T08:24:20.406Z,1.42
2022-12-09T08:25:20.623Z,1.39
2022-12-09T08:26:20.637Z,1.42
2022-12-09T08:27:20.623Z,1.42
2022-12-09T08:28:20.517Z,1.42
2022-12-09T08:29:20.199Z,1.38
2022-12-09T08:30:20.439Z,1.36
2022-12-09T08:31:20.867Z,1.36
2022-12-09T08:32:20.274Z,1.36
2022-12-09T08:33:20.682Z,1.38
2022-12-09T08:34:20.663Z,1.38
2022-12-09T08:35:20.373Z,1.38
2022-12-09T08:36:20.399Z,1.38
2022-12-09T08:37:20.161Z,1.42
2022-12-09T08:38:20.456Z,1.44
2022-12-09T08:39:20.213Z,1.45
2022-12-09T08:40:20.422Z,1.45
2022-12-09T08:41:20.138Z,1.44
2022-12-09T08:42:20.089Z,1.44
2022-12-09T08:43:20.279Z,1.44
2022-12-09T08:44:20.275Z,1.46
2022-12-09T08:45:20.088Z,1.48
2022-12-09T08:46:20.411Z,1.49
2022-12-09T08:47:20.575Z,1.55
2022-12-09T08:48:20.568Z,1.55
2022-12-09T08:49:20.347Z,1.56
2022-12-09T08:50:20.052Z,1.57
2022-12-09T08:51:20.328Z,1.60
2022-12-09T08:52:20.393Z,1.63
2022-12-09T08:53:20.423Z,1.64
2022-12-09T08:54:20.192Z,1.64
2022-12-09T08:55:20.297Z,1.66
2022-12-09T08:56:20.158Z,1.67
2022-12-09T08:57:19.941Z,1.67
2022-12-09T08:58:19.938Z,1.69
2022-12-09T08:59:20.209Z,1.67
2022-12-09T09:00:20.318Z,1.67
2022-12-09T09:01:20.321Z,1.67
2022-12-09T09:02:20.082Z,1.67
2022-12-09T09:03:20.013Z,1.69
2022-12-09T09:04:20.470Z,1.69
2022-12-09T09:05:19.990Z,1.74
2022-12-09T09:06:20.087Z,1.77
2022-12-09T09:07:20.273Z,1.77
2022-12-09T09:08:20.426Z,1.77
2022-12-09T09:09:27.621Z,1.75
2022-12-09T09:10:20.264Z,1.80
2022-12-09T09:11:20.009Z,1.77
2022-12-09T09:12:20.210Z,1.75
2022-12-09T09:13:20.103Z,1.74
2022-12-09T09:14:20.161Z,1.74
2022-12-09T09:15:20.099Z,1.73
2022-12-09T09:16:20.163Z,1.73
2022-12-09T09:17:19.749Z,1.69
2022-12-09T09:18:19.777Z,1.71
2022-12-09T09:19:20.004Z,1.73
2022-12-09T09:20:20.067Z,1.74
2022-12-09T09:21:19.759Z,1.73
2022-12-09T09:22:19.735Z,1.74
2022-12-09T09:23:19.674Z,1.73
2022-12-09T09:24:19.913Z,1.69
2022-12-09T09:25:19.875Z,1.67
2022-12-09T09:26:20.078Z,1.71
2022-12-09T09:27:19.763Z,1.74
2022-12-09T09:28:20.019Z,1.78
2022-12-09T09:29:19.932Z,1.80
2022-12-09T09:30:19.792Z,1.78
2022-12-09T09:31:19.881Z,1.80
2022-12-09T09:32:19.741Z,1.80
2022-12-09T09:33:19.824Z,1.81
2022-12-09T09:34:20.090Z,1.82
2022-12-09T09:35:19.793Z,1.80
2022-12-09T09:36:19.590Z,1.80
2022-12-09T09:37:19.630Z,1.80
2022-12-09T09:38:19.513Z,1.81
2022-12-09T09:39:19.465Z,1.82
2022-12-09T09:40:19.794Z,1.84
2022-12-09T09:41:19.566Z,1.87
2022-12-09T09:42:20.453Z,1.91
2022-12-09T09:43:19.481Z,1.92
2022-12-09T09:44:19.687Z,1.97
2022-12-09T09:45:19.897Z,1.95
2022-12-09T09:46:19.889Z,1.97
2022-12-09T09:47:19.825Z,1.97
2022-12-09T09:48:19.967Z,1.97
2022-12-09T09:49:19.816Z,1.97
2022-12-09T09:50:19.728Z,1.97
2022-12-09T09:51:19.353Z,1.97
2022-12-09T09:52:19.752Z,1.95
2022-12-09T09:53:19.492Z,1.97
2022-12-09T09:54:19.443Z,1.99
2022-12-09T09:55:19.388Z,1.99
2022-12-09T09:56:19.819Z,2.00
2022-12-09T09:57:19.463Z,2.00
2022-12-09T09:58:19.795Z,2.00
2022-12-09T09:59:19.597Z,1.99
2022-12-09T10:00:20.235Z,1.93
2022-12-09T10:01:20.020Z,1.93
2022-12-09T10:02:19.677Z,1.95
2022-12-09T10:03:19.861Z,1.99
2022-12-09T10:04:19.551Z,2.00
2022-12-09T10:05:19.526Z,2.01
2022-12-09T10:06:19.774Z,2.06
2022-12-09T10:07:19.496Z,2.11
2022-12-09T10:08:19.895Z,2.18
2022-12-09T10:09:19.754Z,2.21
2022-12-09T10:10:19.632Z,2.30
2022-12-09T10:11:20.035Z,2.35
2022-12-09T10:12:20.016Z,2.37
2022-12-09T10:13:19.831Z,2.39
2022-12-09T10:14:19.355Z,2.39
2022-12-09T10:15:19.594Z,2.43
2022-12-09T10:16:19.335Z,2.51
2022-12-09T10:17:19.569Z,2.58
2022-12-09T10:18:19.206Z,2.69
2022-12-09T10:19:19.769Z,2.79
2022-12-09T10:20:19.821Z,2.87
2022-12-09T10:21:19.446Z,2.87
2022-12-09T10:22:19.541Z,2.89
2022-12-09T10:23:19.191Z,2.93
2022-12-09T10:24:19.158Z,2.99
2022-12-09T10:25:19.592Z,2.97
2022-12-09T10:26:19.415Z,3.05
2022-12-09T10:27:19.309Z,3.05
2022-12-09T10:28:19.423Z,3.11
2022-12-09T10:29:20.069Z,3.18
2022-12-09T10:30:19.256Z,3.27
2022-12-09T10:31:19.496Z,3.36
2022-12-09T10:32:19.196Z,3.51
2022-12-09T10:33:19.180Z,3.55
2022-12-09T10:34:19.474Z,3.67
2022-12-09T10:35:19.508Z,3.82
2022-12-09T10:36:18.889Z,4.02
2022-12-09T10:37:19.159Z,4.10
2022-12-09T10:38:20.373Z,4.10
2022-12-09T10:39:19.079Z,4.27
2022-12-09T10:40:19.379Z,4.18
2022-12-09T10:41:19.160Z,4.12
2022-12-09T10:42:19.575Z,4.21
2022-12-09T10:43:19.284Z,4.35
2022-12-09T10:44:19.092Z,4.78
2022-12-09T10:45:18.995Z,4.98
2022-12-09T10:46:20.480Z,4.96
2022-12-09T10:47:19.211Z,5.14
2022-12-09T10:48:19.590Z,5.29
2022-12-09T10:49:19.216Z,5.51
2022-12-09T10:50:19.374Z,5.67
2022-12-09T10:51:18.953Z,5.69
2022-12-09T10:52:18.998Z,5.75
2022-12-09T10:53:18.791Z,5.87
2022-12-09T10:54:21.751Z,5.98
2022-12-09T10:55:18.866Z,6.03
2022-12-09T10:56:18.720Z,5.84
2022-12-09T10:57:18.999Z,5.84
2022-12-09T10:58:19.003Z,5.76
2022-12-09T10:59:18.938Z,5.69
2022-12-09T11:00:18.973Z,5.62
2022-12-09T11:01:19.574Z,5.52
2022-12-09T11:02:20.265Z,5.54
2022-12-09T11:03:19.032Z,5.54
2022-12-09T11:04:19.478Z,5.50
2022-12-09T11:05:19.264Z,5.43
2022-12-09T11:06:18.973Z,5.33
2022-12-09T11:07:19.058Z,5.27
2022-12-09T11:08:19.113Z,5.36
2022-12-09T11:09:19.248Z,5.48
2022-12-09T11:10:19.939Z,5.50
2022-12-09T11:11:19.005Z,5.39
2022-12-09T11:12:18.772Z,5.25
2022-12-09T11:13:18.897Z,4.97
2022-12-09T11:14:18.608Z,5.00
2022-12-09T11:15:18.593Z,5.01
2022-12-09T11:16:19.057Z,4.85
2022-12-09T11:17:18.812Z,4.69
2022-12-09T11:18:18.661Z,4.36
2022-12-09T11:19:18.549Z,4.26
2022-12-09T11:20:19.311Z,4.21
2022-12-09T11:21:18.931Z,4.13
2022-12-09T11:22:18.526Z,4.09
2022-12-09T11:23:18.867Z,4.05
2022-12-09T11:24:18.686Z,4.03
2022-12-09T11:25:18.620Z,4.02
2022-12-09T11:26:18.845Z,3.99
2022-12-09T11:27:18.679Z,3.99
2022-12-09T11:28:18.846Z,4.00
2022-12-09T11:29:18.636Z,4.02
2022-12-09T11:30:19.108Z,3.98
2022-12-09T11:31:34.474Z,3.98
2022-12-09T11:32:18.861Z,4.00
2022-12-09T11:33:18.757Z,4.02
2022-12-09T11:34:18.898Z,3.96
2022-12-09T11:35:18.845Z,4.02
2022-12-09T11:36:18.256Z,4.08
2022-12-09T11:37:18.253Z,4.09
2022-12-09T11:38:18.393Z,4.05
2022-12-09T11:39:18.389Z,4.06
2022-12-09T11:40:18.204Z,4.03
2022-12-09T11:41:18.258Z,4.02
2022-12-09T11:42:19.429Z,3.90
2022-12-09T11:43:18.181Z,3.81
2022-12-09T11:44:18.226Z,3.67
2022-12-09T11:45:18.157Z,3.62
2022-12-09T11:46:18.226Z,3.59
2022-12-09T11:47:18.265Z,3.51
2022-12-09T11:48:32.928Z,3.48
2022-12-09T11:49:18.117Z,3.42
2022-12-09T11:50:18.153Z,3.35
2022-12-09T11:51:18.082Z,3.27
2022-12-09T11:52:18.093Z,3.22
2022-12-09T11:53:18.081Z,3.22
2022-12-09T11:54:19.009Z,3.17
2022-12-09T11:55:18.071Z,3.15
2022-12-09T11:56:18.045Z,3.20
2022-12-09T11:57:18.036Z,3.20
2022-12-09T11:58:18.037Z,3.20
2022-12-09T11:59:18.011Z,3.18
2022-12-09T12:00:18.005Z,3.20
2022-12-09T12:01:18.001Z,3.23
2022-12-09T12:02:18.014Z,3.26
2022-12-09T12:03:18.035Z,3.25
2022-12-09T12:04:17.962Z,3.26
2022-12-09T12:05:21.675Z,3.29
2022-12-09T12:06:17.925Z,3.35
2022-12-09T12:07:17.928Z,3.36
2022-12-09T12:08:18.068Z,3.37
2022-12-09T12:09:17.971Z,3.48
2022-12-09T12:10:17.894Z,3.51
2022-12-09T12:11:17.891Z,3.56
2022-12-09T12:12:17.866Z,3.62
2022-12-09T12:13:17.858Z,3.55
2022-12-09T12:14:17.862Z,3.49
2022-12-09T12:15:17.869Z,3.37
2022-12-09T12:16:17.829Z,3.35
2022-12-09T12:17:17.858Z,3.42
2022-12-09T12:18:17.801Z,3.51
2022-12-09T12:19:17.806Z,3.56
2022-12-09T12:20:17.822Z,3.64
2022-12-09T12:21:17.784Z,3.82
2022-12-09T12:22:17.768Z,3.99
2022-12-09T12:23:17.762Z,4.17
2022-12-09T12:24:17.740Z,4.30
2022-12-09T12:25:18.791Z,4.36
2022-12-09T12:26:17.732Z,4.36
2022-12-09T12:27:17.740Z,4.34
2022-12-09T12:28:17.705Z,4.34
2022-12-09T12:29:17.693Z,4.31
2022-12-09T12:30:17.676Z,4.35
2022-12-09T12:31:17.747Z,4.21
2022-12-09T12:32:17.657Z,4.13
2022-12-09T12:33:59.899Z,4.09
2022-12-09T12:34:25.668Z,4.05
2022-12-09T12:35:17.646Z,4.02
2022-12-09T12:36:17.948Z,3.94
2022-12-09T12:37:17.649Z,3.92
2022-12-09T12:38:17.599Z,3.88
2022-12-09T12:39:17.586Z,3.82
2022-12-09T12:40:21.921Z,3.81
2022-12-09T12:41:18.414Z,3.76
2022-12-09T12:42:17.618Z,3.73
2022-12-09T12:43:17.546Z,3.76
2022-12-09T12:44:17.534Z,3.78
2022-12-09T12:45:17.531Z,3.74
2022-12-09T12:46:17.598Z,3.67
2022-12-09T12:47:17.532Z,3.63
2022-12-09T12:48:17.534Z,3.63
2022-12-09T12:49:17.503Z,3.56
2022-12-09T12:50:17.471Z,3.49
2022-12-09T12:51:17.471Z,3.49
2022-12-09T12:52:54.781Z,3.48
2022-12-09T12:53:17.456Z,3.48
2022-12-09T12:54:17.503Z,3.49
2022-12-09T12:55:17.452Z,3.45
2022-12-09T12:56:17.403Z,3.44
2022-12-09T12:57:17.408Z,3.44
2022-12-09T12:58:17.421Z,3.36
2022-12-09T12:59:19.926Z,3.32
2022-12-09T13:00:17.371Z,3.32
2022-12-09T13:01:17.471Z,3.26
2022-12-09T13:02:17.440Z,3.23
2022-12-09T13:03:17.367Z,3.20
2022-12-09T13:04:17.329Z,3.17
2022-12-09T13:05:17.340Z,3.14
2022-12-09T13:06:17.304Z,3.12
2022-12-09T13:07:17.315Z,3.11
2022-12-09T13:08:17.353Z,3.11
2022-12-09T13:09:17.303Z,3.12
2022-12-09T13:10:17.277Z,3.11
2022-12-09T13:11:17.290Z,3.17
2022-12-09T13:12:17.266Z,3.14
2022-12-09T13:13:17.269Z,3.12
2022-12-09T13:14:17.222Z,3.15
2022-12-09T13:15:17.233Z,3.17
2022-12-09T13:16:17.216Z,3.18
2022-12-09T13:17:17.202Z,3.18
2022-12-09T13:18:17.179Z,3.20